Time;durP1;ratioP1;P1;durP2;ratioP2;P2;SDS_P1;SDS_P2;PMS_P1;PMS_P2;Temp;Humidity;BMP_temperature;BMP_pressure;BME280_temperature;BME280_humidity;BME280_pressure;Samples;Min_cycle;Max_cycle;Signal;HPM_P1;HPM_P2
2022/03/01 00:00:55;;;;;;;7.93;1.60;;;22.60;99.90;;;;;;5093185;28;20196;-85
2022/03/01 00:03:26;;;;;;;8.77;1.42;;;22.60;99.90;;;;;;5083321;28;20204;-85
2022/03/01 00:05:57;;;;;;;5.75;1.08;;;22.50;99.90;;;;;;5073533;28;20314;-84
2022/03/01 00:08:27;;;;;;;4.03;0.85;;;22.50;99.90;;;;;;5072705;28;20207;-84
2022/03/01 00:10:59;;;;;;;5.47;1.30;;;22.40;99.90;;;;;;5074650;28;20550;-84
2022/03/01 00:13:30;;;;;;;6.80;1.23;;;22.50;99.90;;;;;;5073782;28;20269;-84
2022/03/01 00:16:02;;;;;;;6.47;1.42;;;22.50;99.90;;;;;;5071975;28;20244;-84
2022/03/01 00:18:33;;;;;;;6.03;1.13;;;22.50;99.90;;;;;;5072879;28;20567;-84
2022/03/01 00:21:04;;;;;;;5.97;1.40;;;22.60;99.90;;;;;;5073990;28;20228;-84
2022/03/01 00:23:35;;;;;;;5.50;1.35;;;22.70;99.90;;;;;;5072130;28;20191;-84
2022/03/01 00:26:05;;;;;;;7.85;0.98;;;22.70;99.90;;;;;;5073022;28;20621;-84
2022/03/01 00:28:36;;;;;;;5.82;1.20;;;22.70;99.90;;;;;;5073069;28;20658;-84
2022/03/01 00:31:09;;;;;;;3.70;1.30;;;22.60;99.90;;;;;;5074200;28;20261;-84
2022/03/01 00:33:39;;;;;;;7.65;1.25;;;22.50;99.90;;;;;;5071828;28;20471;-84
2022/03/01 00:36:13;;;;;;;4.70;1.00;;;22.50;99.90;;;;;;5073799;28;20200;-83
2022/03/01 00:38:44;;;;;;;9.13;1.40;;;22.50;99.90;;;;;;5070024;28;20195;-84
2022/03/01 00:41:14;;;;;;;5.78;1.33;;;22.60;99.90;;;;;;5074152;28;20647;-84
2022/03/01 00:43:45;;;;;;;6.47;1.40;;;22.70;99.90;;;;;;5072351;28;20192;-84
2022/03/01 00:46:18;;;;;;;7.88;1.40;;;22.80;99.90;;;;;;5072506;28;20208;-84
2022/03/01 00:48:49;;;;;;;8.65;1.30;;;22.90;99.90;;;;;;5071892;28;20816;-84
2022/03/01 00:51:20;;;;;;;8.68;1.40;;;22.80;99.90;;;;;;5072545;28;20196;-84
2022/03/01 00:53:51;;;;;;;9.10;2.08;;;22.80;99.90;;;;;;5072115;28;20327;-84
2022/03/01 00:56:21;;;;;;;5.47;1.35;;;22.80;99.90;;;;;;5072956;28;20207;-85
2022/03/01 00:58:52;;;;;;;8.30;1.45;;;22.80;99.90;;;;;;5069528;28;20261;-85
2022/03/01 01:01:25;;;;;;;4.90;1.15;;;22.80;99.90;;;;;;5060585;28;20204;-84
2022/03/01 01:03:56;;;;;;;6.18;1.30;;;22.70;99.90;;;;;;5050155;28;20352;-84
2022/03/01 01:06:26;;;;;;;6.07;0.95;;;22.70;99.90;;;;;;5061786;28;20228;-82
2022/03/01 01:08:57;;;;;;;5.38;1.10;;;22.70;99.90;;;;;;5053078;28;20207;-83
2022/03/01 01:11:28;;;;;;;4.47;1.05;;;22.70;99.90;;;;;;5051988;28;20196;-83
2022/03/01 01:13:58;;;;;;;3.15;1.10;;;22.60;99.90;;;;;;5052569;28;20223;-83
2022/03/01 01:16:31;;;;;;;8.05;1.42;;;22.60;99.90;;;;;;5051740;28;20214;-84
2022/03/01 01:19:01;;;;;;;6.68;1.08;;;22.70;99.90;;;;;;5051188;28;20215;-83
2022/03/01 01:24:15;;;;;;;5.43;1.00;;;22.80;99.90;;;;;;5049287;28;20203;-83
2022/03/01 01:26:46;;;;;;;6.10;1.05;;;23.00;99.90;;;;;;5050971;28;20211;-83
2022/03/01 01:29:17;;;;;;;8.38;1.50;;;23.00;99.90;;;;;;5050498;28;20216;-83
2022/03/01 01:31:49;;;;;;;8.73;1.80;;;23.00;99.90;;;;;;5050282;28;20203;-83
2022/03/01 01:34:20;;;;;;;6.50;1.10;;;22.90;99.90;;;;;;5055051;28;20650;-84
2022/03/01 01:36:50;;;;;;;6.15;1.30;;;22.90;99.90;;;;;;5048283;28;20200;-83
2022/03/01 01:39:21;;;;;;;5.75;1.17;;;22.80;99.90;;;;;;5049412;28;20265;-83
2022/03/01 01:41:52;;;;;;;8.30;1.60;;;22.80;99.90;;;;;;5050061;28;20599;-84
2022/03/01 01:44:22;;;;;;;8.80;1.60;;;22.80;99.90;;;;;;5053082;28;20192;-83
2022/03/01 01:46:55;;;;;;;6.13;1.40;;;22.80;99.90;;;;;;5048435;28;20207;-82
2022/03/01 01:49:27;;;;;;;12.02;1.88;;;22.90;99.90;;;;;;5050780;28;20196;-83
2022/03/01 01:51:58;;;;;;;10.30;1.80;;;22.90;99.90;;;;;;5054200;28;20206;-83
2022/03/01 01:54:28;;;;;;;6.30;1.85;;;23.00;99.90;;;;;;5052168;28;20273;-83
2022/03/01 01:56:59;;;;;;;7.22;1.50;;;23.10;99.90;;;;;;5052391;28;22557;-84
2022/03/01 01:59:30;;;;;;;8.25;1.65;;;23.10;99.90;;;;;;5052312;28;20207;-83
2022/03/01 02:02:02;;;;;;;16.00;1.80;;;23.20;99.90;;;;;;5053757;28;20213;-83
2022/03/01 02:04:33;;;;;;;9.90;2.00;;;23.30;99.90;;;;;;5050987;28;20216;-86
2022/03/01 02:07:05;;;;;;;11.48;2.00;;;23.40;99.90;;;;;;5052419;28;20270;-85
2022/03/01 02:09:37;;;;;;;14.90;2.03;;;23.50;99.90;;;;;;5050770;28;20200;-85
2022/03/01 02:12:09;;;;;;;14.13;2.70;;;23.60;99.90;;;;;;5051835;28;20740;-85
2022/03/01 02:14:40;;;;;;;7.40;2.05;;;23.70;99.90;;;;;;5050959;28;20234;-83
2022/03/01 02:17:13;;;;;;;11.80;2.40;;;23.70;99.90;;;;;;5051373;28;20985;-84
2022/03/01 02:19:50;;;;;;;12.38;2.35;;;23.70;99.90;;;;;;5051436;28;20575;-84
2022/03/01 02:22:23;;;;;;;11.77;2.20;;;23.70;99.90;;;;;;5050797;28;20207;-84
2022/03/01 02:24:54;;;;;;;12.40;1.90;;;23.80;99.90;;;;;;5051196;28;20666;-83
2022/03/01 02:27:25;;;;;;;11.48;2.00;;;23.90;99.90;;;;;;5052511;28;20216;-84
2022/03/01 02:29:55;;;;;;;8.75;1.88;;;23.80;99.90;;;;;;5056678;28;20216;-83
2022/03/01 02:32:26;;;;;;;7.78;1.77;;;23.70;99.90;;;;;;5053289;28;20196;-84
2022/03/01 02:34:57;;;;;;;9.50;1.80;;;23.70;99.90;;;;;;5051995;28;20231;-84
2022/03/01 02:37:30;;;;;;;7.63;1.50;;;23.80;99.90;;;;;;5051422;28;20278;-83
2022/03/01 02:40:01;;;;;;;5.05;1.27;;;23.80;99.90;;;;;;5051572;28;20203;-83
2022/03/01 02:42:32;;;;;;;5.95;1.50;;;23.80;99.90;;;;;;5050985;28;20196;-84
2022/03/01 02:45:03;;;;;;;6.45;1.40;;;23.70;99.90;;;;;;5053514;28;21714;-85
2022/03/01 02:47:33;;;;;;;10.20;1.67;;;23.70;99.90;;;;;;5050428;28;20211;-84
2022/03/01 02:50:04;;;;;;;10.65;1.85;;;23.60;99.90;;;;;;5050051;28;20262;-83
2022/03/01 02:52:37;;;;;;;8.30;1.80;;;23.50;99.90;;;;;;5050875;28;20281;-82
2022/03/01 02:55:09;;;;;;;6.53;1.45;;;23.40;99.90;;;;;;5050261;28;20224;-81
2022/03/01 02:57:39;;;;;;;9.50;1.85;;;23.30;99.90;;;;;;5048335;28;20207;-84
2022/03/01 03:00:11;;;;;;;12.55;2.15;;;23.40;99.90;;;;;;5049159;28;20206;-81
2022/03/01 03:02:41;;;;;;;10.00;1.75;;;23.30;99.90;;;;;;5048603;28;20192;-80
2022/03/01 03:05:12;;;;;;;10.57;2.08;;;23.20;99.90;;;;;;5061642;28;20231;-82
2022/03/01 03:10:39;;;;;;;8.18;1.55;;;23.20;99.90;;;;;;5050691;28;20594;-82
2022/03/01 03:13:10;;;;;;;10.60;1.65;;;23.20;99.90;;;;;;5047823;28;20200;-82
2022/03/01 03:15:40;;;;;;;8.40;1.80;;;23.30;99.90;;;;;;5050184;28;20211;-82
2022/03/01 03:18:11;;;;;;;9.27;1.60;;;23.30;99.90;;;;;;5046578;28;20200;-82
2022/03/01 03:20:42;;;;;;;8.05;1.60;;;23.30;99.90;;;;;;5047495;28;20224;-81
2022/03/01 03:23:15;;;;;;;11.45;1.90;;;23.30;99.90;;;;;;5048502;28;20202;-81
2022/03/01 03:25:45;;;;;;;8.43;1.60;;;23.30;99.90;;;;;;5048042;28;20201;-82
2022/03/01 03:28:17;;;;;;;7.95;1.63;;;23.40;99.90;;;;;;5050072;28;20207;-83
2022/03/01 03:30:48;;;;;;;9.20;2.05;;;23.40;99.90;;;;;;5055094;28;20247;-82
2022/03/01 03:33:18;;;;;;;6.88;2.15;;;23.40;99.90;;;;;;5052857;28;20196;-83
2022/03/01 03:35:49;;;;;;;10.48;2.30;;;23.50;99.90;;;;;;5051314;28;20196;-80
2022/03/01 03:38:22;;;;;;;8.38;1.67;;;23.60;99.90;;;;;;5052331;28;20203;-82
2022/03/01 03:40:52;;;;;;;7.28;1.40;;;23.60;99.90;;;;;;5059225;28;20201;-82
2022/03/01 03:43:23;;;;;;;10.30;1.83;;;23.60;99.90;;;;;;5064773;28;20206;-82
2022/03/01 03:45:55;;;;;;;7.15;1.50;;;23.60;99.90;;;;;;5063413;28;20682;-82
2022/03/01 03:48:25;;;;;;;6.80;1.33;;;23.40;99.90;;;;;;5055337;28;20269;-83
2022/03/01 03:50:56;;;;;;;7.97;1.73;;;23.30;99.90;;;;;;5056336;28;20199;-82
2022/03/01 03:53:33;;;;;;;6.38;1.35;;;23.20;99.90;;;;;;5052829;28;20203;-82
2022/03/01 03:56:03;;;;;;;6.15;1.10;;;23.10;99.90;;;;;;5053758;28;20192;-82
2022/03/01 03:58:34;;;;;;;6.40;1.20;;;22.90;99.90;;;;;;5051071;28;20200;-83
2022/03/01 04:01:08;;;;;;;9.25;1.73;;;22.80;99.90;;;;;;5054221;28;20196;-83
2022/03/01 04:03:42;;;;;;;4.03;1.00;;;22.60;99.90;;;;;;5052920;28;20203;-82
2022/03/01 04:06:12;;;;;;;6.22;1.35;;;22.60;99.90;;;;;;5053479;28;20207;-82
2022/03/01 04:08:45;;;;;;;12.05;1.80;;;22.60;99.90;;;;;;5052138;28;20656;-84
2022/03/01 04:11:16;;;;;;;12.30;2.15;;;22.60;99.90;;;;;;5051606;28;20195;-83
2022/03/01 04:13:46;;;;;;;14.25;2.40;;;22.60;99.90;;;;;;5056899;28;20801;-83
2022/03/01 04:16:17;;;;;;;10.90;2.35;;;22.60;99.90;;;;;;5051263;28;20258;-82
2022/03/01 04:18:48;;;;;;;8.55;1.90;;;22.60;99.90;;;;;;5051549;28;20679;-82
2022/03/01 04:21:18;;;;;;;8.43;1.92;;;22.60;99.90;;;;;;5050290;28;20839;-81
2022/03/01 04:23:52;;;;;;;10.48;2.22;;;22.70;99.90;;;;;;5053537;28;20789;-82
2022/03/01 04:26:23;;;;;;;14.80;2.50;;;22.80;99.90;;;;;;5050490;28;20195;-82
2022/03/01 04:28:53;;;;;;;10.70;2.03;;;22.80;99.90;;;;;;5051329;28;20207;-82
2022/03/01 04:31:24;;;;;;;11.10;1.98;;;22.80;99.90;;;;;;5050504;28;20200;-83
2022/03/01 04:33:55;;;;;;;11.15;1.98;;;22.80;99.90;;;;;;5053752;28;20220;-85
2022/03/01 04:36:26;;;;;;;10.95;2.17;;;22.90;99.90;;;;;;5051645;28;20574;-83
2022/03/01 04:39:00;;;;;;;13.88;2.17;;;22.90;99.90;;;;;;5049731;28;20224;-83
2022/03/01 04:41:31;;;;;;;11.85;2.38;;;23.00;99.90;;;;;;5049545;28;20211;-83
2022/03/01 04:44:02;;;;;;;9.65;1.90;;;23.00;99.90;;;;;;5050507;28;20310;-83
2022/03/01 04:46:33;;;;;;;16.77;2.20;;;23.00;99.90;;;;;;5065514;28;20171;-83
2022/03/01 04:51:56;;;;;;;13.27;2.10;;;23.00;99.90;;;;;;5131306;22;21224;-84
2022/03/01 05:00:29;;;;;;;12.63;2.22;;;23.10;99.90;;;;;;5053296;28;20264;-81
2022/03/01 05:03:01;;;;;;;9.45;1.92;;;23.10;99.90;;;;;;5266432;23;20226;-82
2022/03/01 05:08:30;;;;;;;10.82;1.90;;;23.20;99.90;;;;;;5069219;28;20197;-84
2022/03/01 05:11:11;;;;;;;8.88;1.60;;;23.30;99.90;;;;;;5076872;28;20193;-84
2022/03/01 05:19:15;;;;;;;9.13;1.70;;;23.10;99.90;;;;;;5070701;28;20291;-86
2022/03/01 05:21:56;;;;;;;6.97;1.35;;;23.10;99.90;;;;;;5041433;28;20181;-85
2022/03/01 05:24:40;;;;;;;8.73;1.50;;;23.10;99.90;;;;;;5066871;28;20259;-85
2022/03/01 05:27:43;;;;;;;9.20;1.67;;;23.20;99.90;;;;;;5084722;28;20206;-84
2022/03/01 05:30:17;;;;;;;8.82;1.70;;;23.30;99.90;;;;;;5072464;28;20296;-84
2022/03/01 05:32:50;;;;;;;10.15;1.77;;;23.40;99.90;;;;;;5071978;28;20196;-85
2022/03/01 05:35:22;;;;;;;7.72;1.55;;;23.40;99.90;;;;;;5033584;28;20229;-84
2022/03/01 05:37:54;;;;;;;7.55;1.55;;;23.40;99.90;;;;;;5053972;28;20192;-83
2022/03/01 05:40:26;;;;;;;9.50;1.75;;;23.40;99.90;;;;;;5054702;28;20239;-84
2022/03/01 05:42:57;;;;;;;9.32;1.60;;;23.40;99.90;;;;;;5053284;28;20201;-85
2022/03/01 05:45:30;;;;;;;10.82;1.80;;;23.40;99.90;;;;;;5047294;28;20204;-83
2022/03/01 05:48:01;;;;;;;8.18;1.83;;;23.40;99.90;;;;;;5053658;28;20207;-84
2022/03/01 05:50:32;;;;;;;8.48;1.60;;;23.40;99.90;;;;;;5062715;28;20209;-83
2022/03/01 05:53:02;;;;;;;9.63;1.75;;;23.50;99.90;;;;;;5037168;28;21662;-84
2022/03/01 05:55:33;;;;;;;8.90;1.40;;;23.50;99.90;;;;;;5032264;28;20284;-84
2022/03/01 05:58:04;;;;;;;11.20;1.67;;;23.50;99.90;;;;;;5039115;28;20666;-83
2022/03/01 06:00:37;;;;;;;10.75;2.08;;;23.50;99.90;;;;;;5034325;28;20209;-85
2022/03/01 06:03:07;;;;;;;9.05;1.63;;;23.50;99.90;;;;;;5033310;28;20224;-85
2022/03/01 06:05:39;;;;;;;6.85;1.65;;;23.60;99.90;;;;;;5029127;28;20259;-82
2022/03/01 06:08:10;;;;;;;8.77;2.08;;;23.70;99.90;;;;;;5030025;28;20542;-83
2022/03/01 06:10:41;;;;;;;12.77;2.20;;;23.70;99.90;;;;;;5027894;28;20201;-83
2022/03/01 06:13:11;;;;;;;9.18;1.70;;;23.70;99.90;;;;;;5026771;28;20205;-84
2022/03/01 06:15:44;;;;;;;9.27;1.83;;;23.70;99.90;;;;;;5029113;28;20233;-82
2022/03/01 06:18:14;;;;;;;15.38;2.30;;;23.70;99.90;;;;;;5032300;28;21797;-84
2022/03/01 06:20:46;;;;;;;7.80;1.98;;;23.70;99.90;;;;;;5029004;28;20691;-84
2022/03/01 06:23:16;;;;;;;12.95;2.13;;;23.80;99.90;;;;;;5030300;28;20205;-83
2022/03/01 06:25:47;;;;;;;8.27;1.70;;;23.80;99.90;;;;;;5027576;28;20201;-83
2022/03/01 06:28:20;;;;;;;7.15;1.75;;;23.80;99.90;;;;;;5026548;28;20205;-84
2022/03/01 06:30:53;;;;;;;14.77;2.10;;;23.60;99.90;;;;;;5026237;28;20197;-83
2022/03/01 06:33:23;;;;;;;12.45;2.55;;;23.40;99.90;;;;;;5027775;28;20656;-82
2022/03/01 06:35:56;;;;;;;13.80;2.30;;;23.30;99.90;;;;;;5027830;28;20229;-84
2022/03/01 06:38:27;;;;;;;11.07;2.00;;;23.20;99.90;;;;;;5030660;28;20223;-83
2022/03/01 06:40:58;;;;;;;11.70;2.10;;;23.00;99.90;;;;;;5029802;28;20212;-83
2022/03/01 06:43:29;;;;;;;13.10;2.03;;;22.90;99.90;;;;;;5031230;28;20200;-83
2022/03/01 06:46:05;;;;;;;16.52;2.72;;;22.80;99.90;;;;;;5029262;28;20197;-83
2022/03/01 06:48:35;;;;;;;9.63;1.90;;;22.70;99.90;;;;;;5028604;28;20649;-83
2022/03/01 06:51:07;;;;;;;9.07;1.75;;;22.70;99.90;;;;;;5032254;28;20669;-83
2022/03/01 06:53:39;;;;;;;6.25;1.50;;;22.70;99.90;;;;;;5030067;28;20196;-83
2022/03/01 06:56:10;;;;;;;9.13;1.70;;;22.70;99.90;;;;;;5027861;28;20231;-84
2022/03/01 06:58:40;;;;;;;6.50;1.48;;;22.60;99.90;;;;;;5029777;28;20193;-83
2022/03/01 07:01:13;;;;;;;8.38;1.48;;;22.60;99.90;;;;;;5028445;28;20211;-84
2022/03/01 07:03:44;;;;;;;7.05;1.60;;;22.50;99.90;;;;;;5030881;28;20271;-83
2022/03/01 07:06:16;;;;;;;12.15;1.75;;;22.50;99.90;;;;;;5031399;28;20582;-83
2022/03/01 07:08:47;;;;;;;8.32;1.48;;;22.50;99.90;;;;;;5035526;28;20689;-84
2022/03/01 07:11:18;;;;;;;8.43;1.67;;;22.60;99.90;;;;;;5036323;28;20211;-83
2022/03/01 07:13:48;;;;;;;10.23;1.90;;;22.60;99.90;;;;;;5042235;28;20201;-84
2022/03/01 07:16:21;;;;;;;7.57;1.38;;;22.60;99.90;;;;;;5051818;28;20228;-82
2022/03/01 07:18:53;;;;;;;6.40;1.65;;;22.60;99.90;;;;;;5040546;28;22289;-84
2022/03/01 07:21:26;;;;;;;9.93;1.90;;;22.70;99.90;;;;;;5030472;28;20211;-82
2022/03/01 07:23:58;;;;;;;10.93;1.67;;;22.70;99.90;;;;;;5032341;28;20201;-83
2022/03/01 07:26:29;;;;;;;11.00;2.10;;;22.80;99.90;;;;;;5038289;28;20205;-83
2022/03/01 07:28:59;;;;;;;7.57;1.67;;;22.80;99.90;;;;;;5031914;28;20201;-84
2022/03/01 07:31:32;;;;;;;7.13;1.60;;;22.90;99.90;;;;;;5029002;28;20209;-84
2022/03/01 07:34:03;;;;;;;9.20;1.88;;;22.90;99.90;;;;;;5028733;28;20208;-84
2022/03/01 07:36:34;;;;;;;4.47;1.40;;;23.00;99.90;;;;;;5032645;28;20611;-85
2022/03/01 07:39:05;;;;;;;8.45;1.70;;;23.00;99.90;;;;;;5035020;28;20571;-85
2022/03/01 07:41:36;;;;;;;12.82;2.33;;;23.00;99.90;;;;;;5028075;28;20201;-85
2022/03/01 07:44:07;;;;;;;8.95;1.83;;;23.10;99.90;;;;;;5030105;28;20206;-85
2022/03/01 07:46:39;;;;;;;7.28;1.88;;;23.10;99.90;;;;;;5027159;28;20235;-87
2022/03/01 07:49:10;;;;;;;11.35;1.70;;;23.10;99.90;;;;;;5043180;28;20204;-86
2022/03/01 07:51:41;;;;;;;6.90;1.70;;;23.10;99.90;;;;;;5032334;28;20209;-87
2022/03/01 07:54:12;;;;;;;10.15;1.50;;;23.00;99.90;;;;;;5027169;28;21711;-84
2022/03/01 07:56:42;;;;;;;9.00;1.65;;;22.80;99.90;;;;;;5030178;28;20232;-86
2022/03/01 07:59:13;;;;;;;9.90;2.00;;;22.70;99.90;;;;;;5034450;28;20219;-85
2022/03/01 08:01:45;;;;;;;8.27;1.85;;;22.60;99.90;;;;;;5033878;28;20204;-85
2022/03/01 08:04:16;;;;;;;9.02;2.40;;;22.50;99.90;;;;;;5033196;28;20232;-86
2022/03/01 08:06:49;;;;;;;7.78;2.10;;;22.50;99.90;;;;;;5030131;28;20209;-81
2022/03/01 08:09:23;;;;;;;10.15;1.98;;;22.40;99.90;;;;;;5031462;28;20201;-84
2022/03/01 08:11:53;;;;;;;9.98;2.00;;;22.40;99.90;;;;;;5028322;28;20212;-84
2022/03/01 08:14:24;;;;;;;10.82;2.10;;;22.30;99.90;;;;;;5030516;28;20254;-84
2022/03/01 08:16:57;;;;;;;11.93;2.72;;;22.30;99.90;;;;;;5030754;28;20221;-84
2022/03/01 08:19:28;;;;;;;11.45;2.45;;;22.30;99.90;;;;;;5032148;28;20287;-84
2022/03/01 08:21:59;;;;;;;10.50;2.22;;;22.30;99.90;;;;;;5032121;28;20266;-83
2022/03/01 08:24:29;;;;;;;14.90;2.38;;;22.30;99.90;;;;;;5033780;28;20843;-84
2022/03/01 08:27:00;;;;;;;9.23;2.55;;;22.20;99.90;;;;;;5032784;28;20683;-84
2022/03/01 08:29:31;;;;;;;9.18;2.03;;;22.20;99.90;;;;;;5030183;28;20548;-83
2022/03/01 08:32:03;;;;;;;11.32;2.17;;;22.20;99.90;;;;;;5031234;28;20208;-84
2022/03/01 08:34:34;;;;;;;9.68;2.03;;;22.20;99.90;;;;;;5029996;28;20197;-82
2022/03/01 08:37:05;;;;;;;12.60;2.38;;;22.20;99.90;;;;;;5031235;28;20775;-83
2022/03/01 08:39:35;;;;;;;8.45;1.60;;;22.30;99.90;;;;;;5031267;28;20224;-83
2022/03/01 08:42:06;;;;;;;7.28;1.50;;;22.30;99.90;;;;;;5030183;28;21688;-82
2022/03/01 08:44:37;;;;;;;10.77;1.88;;;22.30;99.90;;;;;;5027391;28;20207;-83
2022/03/01 08:47:09;;;;;;;13.65;2.13;;;22.30;99.90;;;;;;5029492;28;20208;-83
2022/03/01 08:49:42;;;;;;;10.45;2.00;;;22.30;99.90;;;;;;5032379;28;20193;-83
2022/03/01 08:52:14;;;;;;;6.47;1.73;;;22.30;99.90;;;;;;5059365;28;20197;-84
2022/03/01 08:54:45;;;;;;;8.68;1.80;;;22.30;99.90;;;;;;5053361;28;20664;-84
2022/03/01 08:57:16;;;;;;;13.07;2.13;;;22.20;99.90;;;;;;5052925;28;20255;-85
2022/03/01 08:59:47;;;;;;;8.40;1.80;;;22.30;99.90;;;;;;5033631;28;20337;-84
2022/03/01 09:02:20;;;;;;;10.32;1.92;;;22.30;99.90;;;;;;5028535;28;20244;-83
2022/03/01 09:04:50;;;;;;;8.75;1.95;;;22.20;99.90;;;;;;5030634;28;20196;-83
2022/03/01 09:07:24;;;;;;;9.00;1.50;;;22.20;99.90;;;;;;5028249;28;20679;-85
2022/03/01 09:10:00;;;;;;;8.75;1.70;;;22.10;99.90;;;;;;5030803;28;20198;-85
2022/03/01 09:12:30;;;;;;;10.95;1.67;;;22.10;99.90;;;;;;5029262;28;20205;-85
2022/03/01 09:15:01;;;;;;;8.25;1.52;;;22.10;99.90;;;;;;5028135;28;21659;-85
2022/03/01 09:17:34;;;;;;;10.18;1.73;;;22.00;99.90;;;;;;5030621;28;20193;-84
2022/03/01 09:20:05;;;;;;;7.20;1.40;;;22.00;99.90;;;;;;5029794;28;20270;-85
2022/03/01 09:22:36;;;;;;;9.30;1.50;;;22.00;99.90;;;;;;5029493;28;20197;-83
2022/03/01 09:25:07;;;;;;;9.25;1.88;;;22.00;99.90;;;;;;5028398;28;20197;-84
2022/03/01 09:27:37;;;;;;;12.82;2.15;;;22.10;99.90;;;;;;5031094;28;20687;-83
2022/03/01 09:30:09;;;;;;;10.88;2.00;;;22.10;99.90;;;;;;5028847;28;20201;-83
2022/03/01 09:32:42;;;;;;;10.18;2.00;;;22.10;99.90;;;;;;5029497;28;20201;-83
2022/03/01 09:35:14;;;;;;;8.35;1.85;;;22.10;99.90;;;;;;5028604;28;20700;-84
2022/03/01 09:37:49;;;;;;;7.10;1.40;;;22.10;99.90;;;;;;5062220;28;20212;-84
2022/03/01 09:40:29;;;;;;;8.35;1.90;;;22.10;99.90;;;;;;5044570;28;20553;-84
2022/03/01 09:43:02;;;;;;;8.20;1.88;;;22.10;99.90;;;;;;5043326;28;20200;-84
2022/03/01 09:45:35;;;;;;;8.18;1.70;;;22.10;99.90;;;;;;5049782;28;20197;-83
2022/03/01 09:48:08;;;;;;;4.25;1.15;;;22.10;99.90;;;;;;5045670;28;20197;-84
2022/03/01 09:50:41;;;;;;;9.15;1.55;;;22.10;99.90;;;;;;5040985;28;20197;-82
2022/03/01 09:53:12;;;;;;;6.50;1.27;;;22.20;99.90;;;;;;5039935;28;20217;-84
2022/03/01 09:55:45;;;;;;;7.53;1.50;;;22.20;99.90;;;;;;5021843;28;20284;-84
2022/03/01 09:58:19;;;;;;;11.32;1.77;;;22.20;99.90;;;;;;5040321;28;20231;-82
2022/03/01 10:00:53;;;;;;;7.28;1.80;;;22.30;99.90;;;;;;5040224;28;20207;-84
2022/03/01 10:03:26;;;;;;;7.28;1.50;;;22.30;99.90;;;;;;5039041;28;20259;-84
2022/03/01 10:06:07;;;;;;;8.63;1.58;;;22.30;99.90;;;;;;5037144;28;20686;-83
2022/03/01 10:08:40;;;;;;;9.07;1.60;;;22.30;99.90;;;;;;5039514;28;20188;-83
2022/03/01 10:11:11;;;;;;;6.72;1.30;;;22.30;99.90;;;;;;5033984;28;20200;-84
2022/03/01 10:13:45;;;;;;;11.15;1.38;;;22.30;99.90;;;;;;5035350;28;20200;-84
2022/03/01 10:16:16;;;;;;;6.53;1.35;;;22.30;99.90;;;;;;5036827;28;20224;-84
2022/03/01 10:18:55;;;;;;;6.13;1.30;;;22.30;99.90;;;;;;5040029;28;20773;-83
2022/03/01 10:21:30;;;;;;;8.25;1.75;;;22.30;99.90;;;;;;5037039;28;20211;-82
2022/03/01 10:24:01;;;;;;;7.45;1.40;;;22.30;99.90;;;;;;5041141;28;20198;-84
2022/03/01 10:26:32;;;;;;;7.47;1.45;;;22.30;99.90;;;;;;5038659;28;20272;-84
2022/03/01 10:29:05;;;;;;;8.20;1.50;;;22.30;99.90;;;;;;5037815;28;20669;-82
2022/03/01 10:31:37;;;;;;;5.70;1.30;;;22.40;99.90;;;;;;5037668;28;20302;-83
2022/03/01 10:34:13;;;;;;;8.43;1.75;;;22.40;99.90;;;;;;5040059;28;20197;-83
2022/03/01 10:36:47;;;;;;;7.32;1.48;;;22.40;99.90;;;;;;5033947;28;20544;-84
2022/03/01 10:39:19;;;;;;;8.57;1.48;;;22.40;99.90;;;;;;5027249;28;20270;-82
2022/03/01 10:41:53;;;;;;;9.07;1.63;;;22.50;99.90;;;;;;5049215;28;20235;-83
2022/03/01 10:44:27;;;;;;;6.93;1.40;;;22.60;99.90;;;;;;5035516;28;20200;-84
2022/03/01 10:46:59;;;;;;;6.82;1.52;;;22.60;99.90;;;;;;5035703;28;20216;-83
2022/03/01 10:49:43;;;;;;;6.28;1.20;;;22.60;99.90;;;;;;5042155;28;20203;-83
2022/03/01 10:52:14;;;;;;;5.00;1.23;;;22.60;99.90;;;;;;5029148;28;20197;-82
2022/03/01 10:54:46;;;;;;;4.43;0.98;;;22.50;99.90;;;;;;5042128;28;20200;-81
2022/03/01 10:57:32;;;;;;;7.50;1.20;;;22.40;99.90;;;;;;5056176;28;20216;-82
2022/03/01 11:00:03;;;;;;;6.97;1.30;;;22.30;99.90;;;;;;5057323;28;20176;-84
2022/03/01 11:02:33;;;;;;;7.10;1.15;;;22.20;99.90;;;;;;5053299;28;20217;-83
2022/03/01 11:05:08;;;;;;;4.47;1.13;;;22.20;99.90;;;;;;5040836;28;20668;-82
2022/03/01 11:07:38;;;;;;;6.00;1.30;;;22.20;99.90;;;;;;5036082;28;20216;-83
2022/03/01 11:10:12;;;;;;;8.52;1.38;;;22.20;99.90;;;;;;5036873;28;20196;-82
2022/03/01 11:12:44;;;;;;;8.13;1.40;;;22.20;99.90;;;;;;5035051;28;20186;-81
2022/03/01 11:15:25;;;;;;;5.10;1.20;;;22.20;99.90;;;;;;5032864;28;20209;-81
2022/03/01 11:18:06;;;;;;;9.32;1.60;;;22.20;99.90;;;;;;5037221;28;20216;-84
2022/03/01 11:20:44;;;;;;;9.57;1.48;;;22.20;99.90;;;;;;5033997;28;20208;-84
2022/03/01 11:23:17;;;;;;;7.13;1.30;;;22.20;99.90;;;;;;5032551;28;21588;-83
2022/03/01 11:25:48;;;;;;;6.28;1.42;;;22.20;99.90;;;;;;5033361;28;20879;-84
2022/03/01 11:28:22;;;;;;;8.77;1.90;;;22.30;99.90;;;;;;5035829;28;20204;-84
2022/03/01 11:30:53;;;;;;;12.20;2.08;;;22.30;99.90;;;;;;5034993;28;20741;-83
2022/03/01 11:33:35;;;;;;;8.60;1.85;;;22.30;99.90;;;;;;5033130;28;20193;-83
2022/03/01 11:36:09;;;;;;;9.27;1.55;;;22.40;99.90;;;;;;5029924;28;20228;-84
2022/03/01 11:38:46;;;;;;;8.20;1.90;;;22.30;99.90;;;;;;5032943;28;20197;-83
2022/03/01 11:41:20;;;;;;;8.18;2.15;;;22.30;99.90;;;;;;5034051;28;20201;-84
2022/03/01 11:44:00;;;;;;;7.82;1.60;;;22.30;99.90;;;;;;5031017;28;20193;-84
2022/03/01 11:46:41;;;;;;;10.15;1.85;;;22.30;99.90;;;;;;5034098;28;20239;-83
2022/03/01 11:49:14;;;;;;;7.97;1.70;;;22.30;99.90;;;;;;5035579;28;20216;-83
2022/03/01 11:51:51;;;;;;;10.63;1.85;;;22.30;99.90;;;;;;5035481;28;20197;-84
2022/03/01 11:54:25;;;;;;;7.25;1.55;;;22.40;99.90;;;;;;5034876;28;20690;-83
2022/03/01 11:56:59;;;;;;;8.70;1.70;;;22.40;99.90;;;;;;5036978;28;20227;-84
2022/03/01 11:59:31;;;;;;;9.65;1.80;;;22.40;99.90;;;;;;5038507;28;21656;-84
2022/03/01 12:02:02;;;;;;;9.60;1.90;;;22.50;99.90;;;;;;5040855;28;20200;-84
2022/03/01 12:04:33;;;;;;;8.75;2.05;;;22.50;99.90;;;;;;5035162;28;20228;-82
2022/03/01 12:07:07;;;;;;;11.00;1.83;;;22.50;99.90;;;;;;5037850;28;20202;-83
2022/03/01 12:09:43;;;;;;;8.70;1.77;;;22.50;99.90;;;;;;5037873;28;20207;-83
2022/03/01 12:12:13;;;;;;;8.70;1.77;;;22.50;99.90;;;;;;5037505;28;20204;-81
2022/03/01 12:14:55;;;;;;;10.10;2.10;;;22.50;99.90;;;;;;5040251;28;20645;-85
2022/03/01 12:17:26;;;;;;;9.30;2.15;;;22.50;99.90;;;;;;5059116;28;20233;-85
2022/03/01 12:20:03;;;;;;;11.23;2.00;;;22.50;99.90;;;;;;5039266;28;20254;-85
2022/03/01 12:22:37;;;;;;;8.07;1.73;;;22.50;99.90;;;;;;5038640;28;20246;-86
2022/03/01 12:25:09;;;;;;;11.35;2.13;;;22.50;99.90;;;;;;5039348;28;20208;-85
2022/03/01 12:27:40;;;;;;;11.05;2.20;;;22.40;99.90;;;;;;5037596;28;20760;-86
2022/03/01 12:30:12;;;;;;;11.57;1.92;;;22.40;99.90;;;;;;5035729;28;20205;-85
2022/03/01 12:32:51;;;;;;;12.88;2.20;;;22.40;99.90;;;;;;5035016;28;20215;-85
2022/03/01 12:35:22;;;;;;;10.73;1.70;;;22.50;99.90;;;;;;5037287;28;20205;-85
2022/03/01 12:37:57;;;;;;;10.27;1.98;;;22.40;99.90;;;;;;5051660;28;20220;-87
2022/03/01 12:40:32;;;;;;;10.25;2.47;;;22.40;99.90;;;;;;5047722;28;20200;-87
2022/03/01 12:43:06;;;;;;;11.40;2.20;;;22.40;99.90;;;;;;5046828;28;20218;-85
2022/03/01 12:45:39;;;;;;;6.13;1.77;;;22.40;99.90;;;;;;5057312;28;20236;-86
2022/03/01 12:48:12;;;;;;;8.75;1.88;;;22.40;99.90;;;;;;5055931;28;20689;-86
2022/03/01 12:50:50;;;;;;;12.73;2.30;;;22.40;99.90;;;;;;5056339;28;20185;-86
2022/03/01 12:53:25;;;;;;;9.75;2.00;;;22.40;99.90;;;;;;5044106;28;20204;-86
2022/03/01 12:55:56;;;;;;;8.57;2.15;;;22.40;99.90;;;;;;5055187;28;20230;-86
2022/03/01 12:58:29;;;;;;;11.65;2.70;;;22.40;99.90;;;;;;5050877;28;20294;-86
2022/03/01 13:01:09;;;;;;;10.77;2.17;;;22.40;99.90;;;;;;5049264;28;20227;-86
2022/03/01 13:03:40;;;;;;;11.65;2.22;;;22.30;99.90;;;;;;5043219;28;20647;-86
2022/03/01 13:06:13;;;;;;;7.97;1.63;;;22.40;99.90;;;;;;5044987;28;20219;-87
2022/03/01 13:08:47;;;;;;;10.68;2.13;;;22.40;99.90;;;;;;5046817;28;20299;-86
2022/03/01 13:11:18;;;;;;;13.27;2.08;;;22.40;99.90;;;;;;5040066;28;20197;-85
2022/03/01 13:13:50;;;;;;;7.97;1.60;;;22.30;99.90;;;;;;5050015;28;20212;-85
2022/03/01 13:16:22;;;;;;;13.35;2.20;;;22.30;99.90;;;;;;5051915;28;20311;-85
2022/03/01 13:18:55;;;;;;;9.82;2.17;;;22.30;99.90;;;;;;5049002;28;20193;-85
2022/03/01 13:21:28;;;;;;;10.38;1.88;;;22.30;99.90;;;;;;5052787;28;20548;-85
2022/03/01 13:24:10;;;;;;;13.15;2.10;;;22.30;99.90;;;;;;5041445;28;20219;-87
2022/03/01 13:26:41;;;;;;;6.93;1.50;;;22.40;99.90;;;;;;5060808;28;20205;-85
2022/03/01 13:29:14;;;;;;;6.13;1.40;;;22.30;99.90;;;;;;5048631;28;20200;-85
2022/03/01 13:31:45;;;;;;;10.23;1.70;;;22.30;99.90;;;;;;5059291;28;20211;-86